Salishan — WUT4384 — position and weather

sailwx.info

Track history (hours):
 
Tides and Currents Weather Stations Pressure Air Temp Water Temp Dewpoint Dewpoint Depression Visibility Wind Speed Wind Dir Waves Ship Positions

Salishan

Owner: Sause Bros. Inc., COOS BAY, OR. More information available from US FCC via Universal Licensing System and Coast Guard Vessel Documentation Center.

Last reported at 2014-Nov-22 16:33 UTC. Time now 2014-Nov-22 16:37 UTC.
Position N 37°56' W 122°27'.

MMSI: 367007912.

Date/timePositionNaut miles runAvg speedWind from/ knotsBaromVisibWave heightAir tempDewpointWater temp
2014-Nov-22 16:33N 37°56' W 122°27'7 6.8
2014-Nov-22 15:33N 38°02' W 122°22'8 8.3
2014-Nov-22 14:33N 38°03' W 122°12'3 1.0
2014-Nov-22 11:27N 38°02' W 122°08'0 0.0
2014-Nov-22 10:33N 38°02' W 122°08'0 0.0
2014-Nov-22 09:27N 38°02' W 122°08'0 0.0
2014-Nov-22 08:04N 38°02' W 122°08'0 0.0
2014-Nov-22 07:22N 38°02' W 122°08'0 0.0
2014-Nov-22 06:04N 38°02' W 122°08'0 0.0
2014-Nov-22 05:28N 38°02' W 122°08'0 0.0
2014-Nov-22 04:28N 38°02' W 122°08'0 0.0
2014-Nov-22 03:28N 38°02' W 122°08'0 0.0
2014-Nov-22 02:10N 38°02' W 122°08'0 0.0
2014-Nov-22 01:28N 38°02' W 122°08'0 0.0
2014-Nov-22 00:28N 38°02' W 122°08'0 0.0
2014-Nov-21 23:28N 38°02' W 122°08'0 0.0
2014-Nov-21 22:04N 38°02' W 122°08'0 0.0
2014-Nov-21 21:28N 38°02' W 122°08'0 0.0
2014-Nov-21 20:10N 38°02' W 122°08'0 0.0
2014-Nov-21 19:28N 38°02' W 122°08'0 0.0
2014-Nov-21 18:29N 38°02' W 122°08'2 0.7
2014-Nov-21 15:23N 38°03' W 122°11'4 5.0
2014-Nov-21 14:33N 38°04' W 122°16'6 5.6
2014-Nov-21 13:33N 38°02' W 122°23'6 5.6
2014-Nov-21 12:34N 37°57' W 122°27'3 3.2
2014-Nov-21 11:34N 37°54' W 122°26'0 0.2
2014-Nov-21 10:33N 37°54' W 122°26'0 0.0
2014-Nov-21 09:33N 37°54' W 122°26'0 0.0
2014-Nov-21 08:33N 37°54' W 122°26'0 0.0
2014-Nov-21 07:30N 37°54' W 122°26'0 0.0
2014-Nov-21 06:33N 37°54' W 122°26'0 0.0
2014-Nov-21 05:33N 37°54' W 122°26'0 0.0
2014-Nov-21 04:26N 37°54' W 122°26'0 0.0
2014-Nov-21 03:29N 37°54' W 122°26'0 0.0
2014-Nov-21 02:32N 37°54' W 122°26'0 0.1
2014-Nov-21 01:32N 37°54' W 122°26'0 0.0
2014-Nov-21 00:32N 37°54' W 122°26'0 0.0
2014-Nov-20 23:32N 37°54' W 122°26'0 0.0
2014-Nov-20 22:32N 37°54' W 122°26'0 0.0
2014-Nov-20 21:32N 37°54' W 122°26'0 0.1
2014-Nov-20 20:32N 37°54' W 122°26'0 0.0
2014-Nov-20 19:29N 37°54' W 122°26'0 0.0
2014-Nov-20 18:32N 37°54' W 122°26'0 0.0
2014-Nov-20 17:20N 37°54' W 122°26'0 0.0
2014-Nov-20 16:32N 37°54' W 122°26'0 0.0
2014-Nov-20 15:32N 37°54' W 122°26'0 0.0
2014-Nov-20 14:29N 37°54' W 122°26'0 0.1
2014-Nov-20 13:32N 37°54' W 122°26'0 0.0
2014-Nov-20 12:32N 37°54' W 122°26'0 0.0
2014-Nov-20 11:32N 37°54' W 122°26'0 0.0
2014-Nov-20 10:32N 37°54' W 122°26'0 0.0
2014-Nov-20 09:32N 37°54' W 122°26'0 0.0
2014-Nov-20 08:32N 37°54' W 122°26'0 0.1
2014-Nov-20 07:29N 37°54' W 122°26'0 0.1
2014-Nov-20 06:33N 37°54' W 122°26'4 4.0
2014-Nov-20 05:33N 37°50' W 122°24'6 5.8
2014-Nov-20 04:33N 37°48' W 122°31'8 7.7
2014-Nov-20 03:33N 37°45' W 122°40'6 6.2
2014-Nov-20 02:33N 37°47' W 122°48'7 6.7
2014-Nov-20 01:33N 37°50' W 122°55'7 6.9
2014-Nov-20 00:33N 37°54' W 123°03'7 7.0
2014-Nov-19 23:33N 37°57' W 123°10'7 6.9
2014-Nov-19 22:33N 38°02' W 123°16'7 7.4
2014-Nov-19 21:34N 38°07' W 123°23'7 7.0
2014-Nov-19 20:33N 38°12' W 123°30'7 7.0
2014-Nov-19 19:33N 38°16' W 123°36'6 6.4
2014-Nov-19 18:33N 38°21' W 123°42'6 5.6
2014-Nov-19 17:33N 38°24' W 123°48'5 4.6
2014-Nov-19 16:33N 38°27' W 123°52'4 3.9
2014-Nov-19 15:33N 38°30' W 123°56'  
2014-Nov-16 17:14N 45°21' W 124°45'5 6.8
2014-Nov-16 16:26N 45°27' W 124°45'6 6.9
2014-Nov-16 15:32N 45°33' W 124°46'7 7.0
2014-Nov-16 14:31N 45°40' W 124°46'7 7.1
2014-Nov-16 13:34N 45°47' W 124°47'7 7.2
2014-Nov-16 12:34N 45°54' W 124°49'7 7.0
2014-Nov-16 11:33N 46°01' W 124°47'7 7.1
2014-Nov-16 10:33N 46°08' W 124°47'6 6.4
2014-Nov-16 09:33N 46°15' W 124°48'6 5.7
2014-Nov-16 08:33N 46°20' W 124°48'5 5.1
2014-Nov-16 07:33N 46°25' W 124°49'5 4.6
2014-Nov-16 06:34N 46°30' W 124°49'4 4.1
2014-Nov-16 05:34N 46°34' W 124°50'4 4.4
2014-Nov-16 04:32N 46°38' W 124°51'5 4.6
2014-Nov-16 03:33N 46°43' W 124°52'6 5.5
2014-Nov-16 02:33N 46°48' W 124°50'6 6.2
2014-Nov-16 01:33N 46°55' W 124°50'6 6.2
2014-Nov-16 00:33N 47°01' W 124°50'6 6.1
2014-Nov-15 23:32N 47°07' W 124°51'78 6.4
2014-Nov-15 11:23N 48°25' W 124°57'6 7.6
2014-Nov-15 10:33N 48°27' W 124°48'9 8.9
2014-Nov-15 09:34N 48°24' W 124°35'8 8.0
2014-Nov-15 08:34N 48°21' W 124°24'8 7.5
2014-Nov-15 07:33N 48°17' W 124°14'8 7.5
2014-Nov-15 06:33N 48°14' W 124°04'9 8.7
2014-Nov-15 05:34N 48°12' W 123°51'1 8.5
2014-Nov-15 05:24N 48°12' W 123°49'7 8.4
2014-Nov-15 04:33N 48°12' W 123°39'6 8.4
2014-Nov-15 03:49N 48°12' W 123°30'2 8.0
2014-Nov-15 03:33N 48°12' W 123°26'8 8.2
2014-Nov-15 02:33N 48°12' W 123°14'9 8.6
2014-Nov-15 01:33N 48°13' W 123°01'7 8.3
2014-Nov-15 00:43N 48°12' W 122°51'2 8.8
2014-Nov-15 00:33N 48°12' W 122°49'11 9.0
2014-Nov-14 23:18N 48°03' W 122°38'7 9.1
2014-Nov-14 22:34N 47°57' W 122°33'019.0
2014-Nov-14 22:33N 47°57' W 122°33'1 8.4
2014-Nov-14 22:29N 47°57' W 122°32'7 7.8
2014-Nov-14 21:33N 47°51' W 122°27'1 7.4
2014-Nov-14 21:24N 47°49' W 122°27'6 7.5
2014-Nov-14 20:34N 47°43' W 122°26'1 7.0
2014-Nov-14 20:29N 47°43' W 122°26'7 7.4
2014-Nov-14 19:33N 47°36' W 122°26'1 6.8
2014-Nov-14 19:29N 47°35' W 122°26'7 7.4
2014-Nov-14 18:33N 47°29' W 122°24'1 6.8
2014-Nov-14 18:28N 47°28' W 122°24'6 6.8
2014-Nov-14 17:33N 47°22' W 122°22'4 6.6
2014-Nov-14 16:53N 47°19' W 122°27'2 4.9
2014-Nov-14 16:33N 47°18' W 122°27'2 2.2
2014-Nov-14 15:33N 47°16' W 122°24'0 0.2
2014-Nov-14 14:29N 47°16' W 122°24'0 0.0
2014-Nov-14 12:26N 47°16' W 122°24'0 0.0
2014-Nov-14 11:33N 47°16' W 122°24'0 0.0
2014-Nov-14 10:33N 47°16' W 122°24'0 0.0
2014-Nov-14 09:33N 47°16' W 122°24'0 0.0
2014-Nov-14 08:33N 47°16' W 122°24'0 0.0
2014-Nov-14 07:33N 47°16' W 122°24'0 0.0
2014-Nov-14 06:33N 47°16' W 122°24'0 0.0
2014-Nov-14 05:34N 47°16' W 122°24'0 0.0
2014-Nov-14 04:33N 47°16' W 122°24'0 0.0
2014-Nov-14 03:30N 47°16' W 122°24'0 0.0
2014-Nov-14 02:26N 47°16' W 122°24'0 0.0
2014-Nov-14 01:24N 47°16' W 122°24'0 0.0
2014-Nov-14 00:33N 47°16' W 122°24'0 0.0
2014-Nov-13 22:05N 47°16' W 122°24'0 0.0
2014-Nov-13 19:31N 47°16' W 122°24'0 0.0
2014-Nov-13 18:29N 47°16' W 122°24'0 0.0
2014-Nov-13 17:32N 47°16' W 122°24'0 0.0
2014-Nov-13 16:30N 47°16' W 122°24'0 0.0
2014-Nov-13 15:31N 47°16' W 122°24'1 0.8
2014-Nov-13 14:33N 47°16' W 122°25'0 0.0
2014-Nov-13 13:31N 47°16' W 122°25'0 0.0
2014-Nov-13 12:31N 47°16' W 122°25'0 0.0
2014-Nov-13 11:31N 47°16' W 122°25'0 0.0
2014-Nov-13 10:31N 47°16' W 122°25'0 0.0
2014-Nov-13 09:31N 47°16' W 122°25'0 0.0
2014-Nov-13 08:31N 47°16' W 122°25'0 0.0
2014-Nov-13 07:31N 47°16' W 122°25'0 0.0
2014-Nov-13 06:31N 47°16' W 122°25'0 0.0
2014-Nov-13 05:31N 47°16' W 122°25'0 0.0
2014-Nov-13 04:31N 47°16' W 122°25'0 0.0
2014-Nov-13 03:31N 47°16' W 122°25'0 0.0
2014-Nov-13 02:31N 47°16' W 122°25'0 0.0
2014-Nov-13 01:31N 47°16' W 122°25'0 0.0
2014-Nov-13 00:31N 47°16' W 122°25'0 0.0
2014-Nov-13 00:01N 47°16' W 122°25'0 0.0
2014-Nov-12 23:31N 47°16' W 122°25'0 0.0
2014-Nov-12 22:31N 47°16' W 122°25'0 0.0
2014-Nov-12 21:31N 47°16' W 122°25'0 0.0
2014-Nov-12 20:31N 47°16' W 122°25'0 0.0
2014-Nov-12 19:31N 47°16' W 122°25'0 0.0
2014-Nov-12 18:31N 47°16' W 122°25'0 0.0
2014-Nov-12 17:33N 47°16' W 122°25'0 0.0
2014-Nov-12 16:33N 47°16' W 122°25'  
Track history (hours):
 
Tides and Currents Weather Stations Pressure Air Temp Water Temp Dewpoint Dewpoint Depression Visibility Wind Speed Wind Dir Waves Ship Positions

Salishan

Owner: Sause Bros. Inc., COOS BAY, OR. More information available from US FCC via Universal Licensing System and Coast Guard Vessel Documentation Center.

Last reported at 2014-Nov-22 16:33 UTC. Time now 2014-Nov-22 16:37 UTC.
Position N 37°56' W 122°27'.

MMSI: 367007912.

Date/timePositionNaut miles runAvg speedWind from/ knotsBaromVisibWave heightAir tempDewpointWater temp
2014-Nov-22 16:33N 37°56' W 122°27'7 6.8
2014-Nov-22 15:33N 38°02' W 122°22'8 8.3
2014-Nov-22 14:33N 38°03' W 122°12'3 1.0
2014-Nov-22 11:27N 38°02' W 122°08'0 0.0
2014-Nov-22 10:33N 38°02' W 122°08'0 0.0
2014-Nov-22 09:27N 38°02' W 122°08'0 0.0
2014-Nov-22 08:04N 38°02' W 122°08'0 0.0
2014-Nov-22 07:22N 38°02' W 122°08'0 0.0
2014-Nov-22 06:04N 38°02' W 122°08'0 0.0
2014-Nov-22 05:28N 38°02' W 122°08'0 0.0
2014-Nov-22 04:28N 38°02' W 122°08'0 0.0
2014-Nov-22 03:28N 38°02' W 122°08'0 0.0
2014-Nov-22 02:10N 38°02' W 122°08'0 0.0
2014-Nov-22 01:28N 38°02' W 122°08'0 0.0
2014-Nov-22 00:28N 38°02' W 122°08'0 0.0
2014-Nov-21 23:28N 38°02' W 122°08'0 0.0
2014-Nov-21 22:04N 38°02' W 122°08'0 0.0
2014-Nov-21 21:28N 38°02' W 122°08'0 0.0
2014-Nov-21 20:10N 38°02' W 122°08'0 0.0
2014-Nov-21 19:28N 38°02' W 122°08'0 0.0
2014-Nov-21 18:29N 38°02' W 122°08'2 0.7
2014-Nov-21 15:23N 38°03' W 122°11'4 5.0
2014-Nov-21 14:33N 38°04' W 122°16'6 5.6
2014-Nov-21 13:33N 38°02' W 122°23'6 5.6
2014-Nov-21 12:34N 37°57' W 122°27'3 3.2
2014-Nov-21 11:34N 37°54' W 122°26'0 0.2
2014-Nov-21 10:33N 37°54' W 122°26'0 0.0
2014-Nov-21 09:33N 37°54' W 122°26'0 0.0
2014-Nov-21 08:33N 37°54' W 122°26'0 0.0
2014-Nov-21 07:30N 37°54' W 122°26'0 0.0
2014-Nov-21 06:33N 37°54' W 122°26'0 0.0
2014-Nov-21 05:33N 37°54' W 122°26'0 0.0
2014-Nov-21 04:26N 37°54' W 122°26'0 0.0
2014-Nov-21 03:29N 37°54' W 122°26'0 0.0
2014-Nov-21 02:32N 37°54' W 122°26'0 0.1
2014-Nov-21 01:32N 37°54' W 122°26'0 0.0
2014-Nov-21 00:32N 37°54' W 122°26'0 0.0
2014-Nov-20 23:32N 37°54' W 122°26'0 0.0
2014-Nov-20 22:32N 37°54' W 122°26'0 0.0
2014-Nov-20 21:32N 37°54' W 122°26'0 0.1
2014-Nov-20 20:32N 37°54' W 122°26'0 0.0
2014-Nov-20 19:29N 37°54' W 122°26'0 0.0
2014-Nov-20 18:32N 37°54' W 122°26'0 0.0
2014-Nov-20 17:20N 37°54' W 122°26'0 0.0
2014-Nov-20 16:32N 37°54' W 122°26'0 0.0
2014-Nov-20 15:32N 37°54' W 122°26'0 0.0
2014-Nov-20 14:29N 37°54' W 122°26'0 0.1
2014-Nov-20 13:32N 37°54' W 122°26'0 0.0
2014-Nov-20 12:32N 37°54' W 122°26'0 0.0
2014-Nov-20 11:32N 37°54' W 122°26'0 0.0
2014-Nov-20 10:32N 37°54' W 122°26'0 0.0
2014-Nov-20 09:32N 37°54' W 122°26'0 0.0
2014-Nov-20 08:32N 37°54' W 122°26'0 0.1
2014-Nov-20 07:29N 37°54' W 122°26'0 0.1
2014-Nov-20 06:33N 37°54' W 122°26'4 4.0
2014-Nov-20 05:33N 37°50' W 122°24'6 5.8
2014-Nov-20 04:33N 37°48' W 122°31'8 7.7
2014-Nov-20 03:33N 37°45' W 122°40'6 6.2
2014-Nov-20 02:33N 37°47' W 122°48'7 6.7
2014-Nov-20 01:33N 37°50' W 122°55'7 6.9
2014-Nov-20 00:33N 37°54' W 123°03'7 7.0
2014-Nov-19 23:33N 37°57' W 123°10'7 6.9
2014-Nov-19 22:33N 38°02' W 123°16'7 7.4
2014-Nov-19 21:34N 38°07' W 123°23'7 7.0
2014-Nov-19 20:33N 38°12' W 123°30'7 7.0
2014-Nov-19 19:33N 38°16' W 123°36'6 6.4
2014-Nov-19 18:33N 38°21' W 123°42'6 5.6
2014-Nov-19 17:33N 38°24' W 123°48'5 4.6
2014-Nov-19 16:33N 38°27' W 123°52'4 3.9
2014-Nov-19 15:33N 38°30' W 123°56'  
2014-Nov-16 17:14N 45°21' W 124°45'5 6.8
2014-Nov-16 16:26N 45°27' W 124°45'6 6.9
2014-Nov-16 15:32N 45°33' W 124°46'7 7.0
2014-Nov-16 14:31N 45°40' W 124°46'7 7.1
2014-Nov-16 13:34N 45°47' W 124°47'7 7.2
2014-Nov-16 12:34N 45°54' W 124°49'7 7.0
2014-Nov-16 11:33N 46°01' W 124°47'7 7.1
2014-Nov-16 10:33N 46°08' W 124°47'6 6.4
2014-Nov-16 09:33N 46°15' W 124°48'6 5.7
2014-Nov-16 08:33N 46°20' W 124°48'5 5.1
2014-Nov-16 07:33N 46°25' W 124°49'5 4.6
2014-Nov-16 06:34N 46°30' W 124°49'4 4.1
2014-Nov-16 05:34N 46°34' W 124°50'4 4.4
2014-Nov-16 04:32N 46°38' W 124°51'5 4.6
2014-Nov-16 03:33N 46°43' W 124°52'6 5.5
2014-Nov-16 02:33N 46°48' W 124°50'6 6.2
2014-Nov-16 01:33N 46°55' W 124°50'6 6.2
2014-Nov-16 00:33N 47°01' W 124°50'6 6.1
2014-Nov-15 23:32N 47°07' W 124°51'78 6.4
2014-Nov-15 11:23N 48°25' W 124°57'6 7.6
2014-Nov-15 10:33N 48°27' W 124°48'9 8.9
2014-Nov-15 09:34N 48°24' W 124°35'8 8.0
2014-Nov-15 08:34N 48°21' W 124°24'8 7.5
2014-Nov-15 07:33N 48°17' W 124°14'8 7.5
2014-Nov-15 06:33N 48°14' W 124°04'9 8.7
2014-Nov-15 05:34N 48°12' W 123°51'1 8.5
2014-Nov-15 05:24N 48°12' W 123°49'7 8.4
2014-Nov-15 04:33N 48°12' W 123°39'6 8.4
2014-Nov-15 03:49N 48°12' W 123°30'2 8.0
2014-Nov-15 03:33N 48°12' W 123°26'8 8.2
2014-Nov-15 02:33N 48°12' W 123°14'9 8.6
2014-Nov-15 01:33N 48°13' W 123°01'7 8.3
2014-Nov-15 00:43N 48°12' W 122°51'2 8.8
2014-Nov-15 00:33N 48°12' W 122°49'11 9.0
2014-Nov-14 23:18N 48°03' W 122°38'7 9.1
2014-Nov-14 22:34N 47°57' W 122°33'019.0
2014-Nov-14 22:33N 47°57' W 122°33'1 8.4
2014-Nov-14 22:29N 47°57' W 122°32'7 7.8
2014-Nov-14 21:33N 47°51' W 122°27'1 7.4
2014-Nov-14 21:24N 47°49' W 122°27'6 7.5
2014-Nov-14 20:34N 47°43' W 122°26'1 7.0
2014-Nov-14 20:29N 47°43' W 122°26'7 7.4
2014-Nov-14 19:33N 47°36' W 122°26'1 6.8
2014-Nov-14 19:29N 47°35' W 122°26'7 7.4
2014-Nov-14 18:33N 47°29' W 122°24'1 6.8
2014-Nov-14 18:28N 47°28' W 122°24'6 6.8
2014-Nov-14 17:33N 47°22' W 122°22'4 6.6
2014-Nov-14 16:53N 47°19' W 122°27'2 4.9
2014-Nov-14 16:33N 47°18' W 122°27'2 2.2
2014-Nov-14 15:33N 47°16' W 122°24'0 0.2
2014-Nov-14 14:29N 47°16' W 122°24'0 0.0
2014-Nov-14 12:26N 47°16' W 122°24'0 0.0
2014-Nov-14 11:33N 47°16' W 122°24'0 0.0
2014-Nov-14 10:33N 47°16' W 122°24'0 0.0
2014-Nov-14 09:33N 47°16' W 122°24'0 0.0
2014-Nov-14 08:33N 47°16' W 122°24'0 0.0
2014-Nov-14 07:33N 47°16' W 122°24'0 0.0
2014-Nov-14 06:33N 47°16' W 122°24'0 0.0
2014-Nov-14 05:34N 47°16' W 122°24'0 0.0
2014-Nov-14 04:33N 47°16' W 122°24'0 0.0
2014-Nov-14 03:30N 47°16' W 122°24'0 0.0
2014-Nov-14 02:26N 47°16' W 122°24'0 0.0
2014-Nov-14 01:24N 47°16' W 122°24'0 0.0
2014-Nov-14 00:33N 47°16' W 122°24'0 0.0
2014-Nov-13 22:05N 47°16' W 122°24'0 0.0
2014-Nov-13 19:31N 47°16' W 122°24'0 0.0
2014-Nov-13 18:29N 47°16' W 122°24'0 0.0
2014-Nov-13 17:32N 47°16' W 122°24'0 0.0
2014-Nov-13 16:30N 47°16' W 122°24'0 0.0
2014-Nov-13 15:31N 47°16' W 122°24'1 0.8
2014-Nov-13 14:33N 47°16' W 122°25'0 0.0
2014-Nov-13 13:31N 47°16' W 122°25'0 0.0
2014-Nov-13 12:31N 47°16' W 122°25'0 0.0
2014-Nov-13 11:31N 47°16' W 122°25'0 0.0
2014-Nov-13 10:31N 47°16' W 122°25'0 0.0
2014-Nov-13 09:31N 47°16' W 122°25'0 0.0
2014-Nov-13 08:31N 47°16' W 122°25'0 0.0
2014-Nov-13 07:31N 47°16' W 122°25'0 0.0
2014-Nov-13 06:31N 47°16' W 122°25'0 0.0
2014-Nov-13 05:31N 47°16' W 122°25'0 0.0
2014-Nov-13 04:31N 47°16' W 122°25'0 0.0
2014-Nov-13 03:31N 47°16' W 122°25'0 0.0
2014-Nov-13 02:31N 47°16' W 122°25'0 0.0
2014-Nov-13 01:31N 47°16' W 122°25'0 0.0
2014-Nov-13 00:31N 47°16' W 122°25'0 0.0
2014-Nov-13 00:01N 47°16' W 122°25'0 0.0
2014-Nov-12 23:31N 47°16' W 122°25'0 0.0
2014-Nov-12 22:31N 47°16' W 122°25'0 0.0
2014-Nov-12 21:31N 47°16' W 122°25'0 0.0
2014-Nov-12 20:31N 47°16' W 122°25'0 0.0
2014-Nov-12 19:31N 47°16' W 122°25'0 0.0
2014-Nov-12 18:31N 47°16' W 122°25'0 0.0
2014-Nov-12 17:33N 47°16' W 122°25'0 0.0
2014-Nov-12 16:33N 47°16' W 122°25'  

Dump ship's entire track history